Time;durP1;ratioP1;P1;durP2;ratioP2;P2;SDS_P1;SDS_P2;PMS_P1;PMS_P2;Temp;Humidity;BMP_temperature;BMP_pressure;BME280_temperature;BME280_humidity;BME280_pressure;Samples;Min_cycle;Max_cycle;Signal;HPM_P1;HPM_P2
2022/12/11 00:00:46;;;;;;;31.23;19.03;;;0.30;99.90;;;;;;5031987;28;20206;-51
2022/12/11 00:03:14;;;;;;;33.57;19.53;;;0.20;99.90;;;;;;5031786;28;20204;-50
2022/12/11 00:05:41;;;;;;;32.67;20.03;;;0.20;99.90;;;;;;5029969;28;20206;-49
2022/12/11 00:08:09;;;;;;;37.87;21.23;;;0.30;99.90;;;;;;5031113;28;20250;-48
2022/12/11 00:10:36;;;;;;;30.83;19.60;;;0.20;99.90;;;;;;5030328;28;20317;-50
2022/12/11 00:13:04;;;;;;;35.07;20.23;;;0.30;99.90;;;;;;5030270;28;20222;-50
2022/12/11 00:15:31;;;;;;;35.77;20.27;;;0.30;99.90;;;;;;5031992;28;20585;-50
2022/12/11 00:17:59;;;;;;;34.50;20.47;;;0.30;99.90;;;;;;5032134;28;20201;-51
2022/12/11 00:20:26;;;;;;;37.47;20.37;;;0.20;99.90;;;;;;5031183;28;20206;-51
2022/12/11 00:22:53;;;;;;;33.70;20.47;;;0.30;99.90;;;;;;5030064;28;20204;-51
2022/12/11 00:25:20;;;;;;;32.53;19.53;;;0.30;99.90;;;;;;5026183;28;20247;-50
2022/12/11 00:27:47;;;;;;;33.67;20.30;;;0.20;99.90;;;;;;5023035;28;20219;-48
2022/12/11 00:30:15;;;;;;;33.00;19.53;;;0.20;99.90;;;;;;5025959;28;20204;-51
2022/12/11 00:32:43;;;;;;;32.77;19.67;;;0.30;99.90;;;;;;5027342;28;20220;-50
2022/12/11 00:35:10;;;;;;;35.63;21.50;;;0.30;99.90;;;;;;5028346;28;20229;-52
2022/12/11 00:37:38;;;;;;;32.23;20.30;;;0.30;99.90;;;;;;5026161;28;20311;-48
2022/12/11 00:40:06;;;;;;;32.70;20.57;;;0.20;99.90;;;;;;5023517;28;20591;-49
2022/12/11 00:42:33;;;;;;;29.03;18.73;;;0.20;99.90;;;;;;5023684;28;20206;-50
2022/12/11 00:45:00;;;;;;;30.43;19.37;;;0.20;99.90;;;;;;5023505;28;20209;-49
2022/12/11 00:47:28;;;;;;;30.83;18.47;;;0.10;99.90;;;;;;5031532;28;20224;-49
2022/12/11 00:49:55;;;;;;;31.47;18.60;;;0.10;99.90;;;;;;5025262;28;20216;-50
2022/12/11 00:52:23;;;;;;;27.80;17.73;;;0.20;99.90;;;;;;5033566;28;20225;-51
2022/12/11 00:54:50;;;;;;;30.03;17.23;;;0.20;99.90;;;;;;5032299;28;20289;-52
2022/12/11 00:57:17;;;;;;;26.60;16.27;;;0.20;99.90;;;;;;5027894;28;20220;-49
2022/12/11 00:59:48;;;;;;;26.57;16.50;;;0.20;99.90;;;;;;5033329;28;20580;-50
2022/12/11 01:02:15;;;;;;;30.53;17.33;;;0.20;99.90;;;;;;5032985;28;20199;-50
2022/12/11 01:04:43;;;;;;;28.57;17.50;;;0.20;99.90;;;;;;5025716;28;20219;-49
2022/12/11 01:07:10;;;;;;;28.63;18.03;;;0.20;99.90;;;;;;5028874;28;20314;-49
2022/12/11 01:12:21;;;;;;;25.37;15.37;;;0.20;99.90;;;;;;5034725;28;20296;-49
2022/12/11 01:14:48;;;;;;;23.93;15.87;;;0.20;99.90;;;;;;5034741;28;20203;-50
2022/12/11 01:17:15;;;;;;;29.67;18.30;;;0.20;99.90;;;;;;5035203;28;20224;-48
2022/12/11 01:19:46;;;;;;;30.53;16.20;;;0.10;99.90;;;;;;5030537;28;20584;-49
2022/12/11 01:22:13;;;;;;;26.97;17.50;;;0.20;99.90;;;;;;5033105;28;20202;-48
2022/12/11 01:24:44;;;;;;;27.53;15.80;;;0.20;99.90;;;;;;5025224;28;20754;-49
2022/12/11 01:27:11;;;;;;;21.67;15.73;;;0.20;99.90;;;;;;5035010;28;20219;-49
2022/12/11 01:29:42;;;;;;;32.20;18.33;;;0.20;99.90;;;;;;5032535;28;20208;-49
2022/12/11 01:32:09;;;;;;;28.47;16.90;;;0.20;99.90;;;;;;5033951;28;20224;-51
2022/12/11 01:34:39;;;;;;;28.93;17.47;;;0.20;99.90;;;;;;5033102;28;20617;-51
2022/12/11 01:37:08;;;;;;;26.17;15.73;;;0.20;99.90;;;;;;5028229;28;20304;-49
2022/12/11 01:39:37;;;;;;;27.63;16.10;;;0.20;99.90;;;;;;5034819;28;20754;-49
2022/12/11 01:42:05;;;;;;;25.27;16.57;;;0.20;99.90;;;;;;5034809;28;20226;-49
2022/12/11 01:45:24;;;;;;;28.83;17.53;;;0.30;99.90;;;;;;5033926;28;20212;-48
2022/12/11 01:47:54;;;;;;;28.83;17.07;;;0.20;99.90;;;;;;5030526;28;20227;-52
2022/12/11 01:50:21;;;;;;;26.80;17.37;;;0.20;99.90;;;;;;5033639;28;20754;-51
2022/12/11 01:52:50;;;;;;;29.83;16.93;;;0.30;99.90;;;;;;5034710;28;20581;-49
2022/12/11 01:55:19;;;;;;;25.07;16.00;;;0.30;99.90;;;;;;5031871;28;20667;-49
2022/12/11 01:57:49;;;;;;;28.13;17.23;;;0.20;99.90;;;;;;5029699;28;20229;-50
2022/12/11 02:00:16;;;;;;;26.57;17.53;;;0.20;99.90;;;;;;5014969;28;20222;-49
2022/12/11 02:02:44;;;;;;;26.50;16.67;;;0.20;99.90;;;;;;5030728;28;20278;-49
2022/12/11 02:05:11;;;;;;;25.93;16.07;;;0.30;99.90;;;;;;5033615;28;20204;-49
2022/12/11 02:07:43;;;;;;;24.43;17.60;;;0.30;99.90;;;;;;5032120;28;20219;-49
2022/12/11 02:10:12;;;;;;;26.33;16.80;;;0.30;99.90;;;;;;5033714;28;20290;-49
2022/12/11 02:12:45;;;;;;;27.33;17.17;;;0.30;99.90;;;;;;5034106;28;20304;-51
2022/12/11 02:15:18;;;;;;;27.73;16.33;;;0.30;99.90;;;;;;5026421;28;20206;-52
2022/12/11 02:17:51;;;;;;;30.40;18.03;;;0.30;99.90;;;;;;5031460;28;20216;-49
2022/12/11 02:20:23;;;;;;;29.87;17.87;;;0.30;99.90;;;;;;5032325;28;20292;-51
2022/12/11 02:23:16;;;;;;;29.93;17.30;;;0.30;99.90;;;;;;5030363;28;20258;-49
2022/12/11 02:25:52;;;;;;;30.77;18.73;;;0.30;99.90;;;;;;5023915;28;20249;-49
2022/12/11 02:28:25;;;;;;;25.67;15.93;;;0.30;99.90;;;;;;5032223;28;20203;-48
2022/12/11 02:30:58;;;;;;;27.70;16.37;;;0.40;99.90;;;;;;5031849;28;20201;-50
2022/12/11 02:33:33;;;;;;;24.23;16.47;;;0.30;99.90;;;;;;5032950;28;20270;-49
2022/12/11 02:36:02;;;;;;;29.93;17.20;;;0.30;99.90;;;;;;5029123;28;20663;-50
2022/12/11 02:38:33;;;;;;;25.47;16.07;;;0.30;99.90;;;;;;5027781;28;20207;-48
2022/12/11 02:41:02;;;;;;;25.33;15.07;;;0.20;99.90;;;;;;5033482;28;20253;-49
2022/12/11 02:43:32;;;;;;;24.23;15.37;;;0.30;99.90;;;;;;5030816;28;20269;-49
2022/12/11 02:46:00;;;;;;;25.57;15.57;;;0.30;99.90;;;;;;5033762;28;20655;-48
2022/12/11 02:48:27;;;;;;;25.47;15.70;;;0.30;99.90;;;;;;5022789;28;20204;-50
2022/12/11 02:50:57;;;;;;;25.20;16.03;;;0.40;99.90;;;;;;5030297;28;20249;-50
2022/12/11 02:53:28;;;;;;;28.23;16.83;;;0.30;99.90;;;;;;5031817;28;20223;-51
2022/12/11 02:56:02;;;;;;;27.50;16.87;;;0.40;99.90;;;;;;5030573;28;20226;-49
2022/12/11 02:58:33;;;;;;;26.83;16.73;;;0.40;99.90;;;;;;5025357;28;20208;-49
2022/12/11 03:01:00;;;;;;;25.10;15.90;;;0.40;99.90;;;;;;5033177;28;20258;-49
2022/12/11 03:03:29;;;;;;;28.50;16.60;;;0.40;99.90;;;;;;5030632;28;20199;-50
2022/12/11 03:05:56;;;;;;;27.10;17.37;;;0.30;99.90;;;;;;5025521;28;20234;-49
2022/12/11 03:08:23;;;;;;;26.27;16.60;;;0.30;99.90;;;;;;5033321;28;20203;-52
2022/12/11 03:10:50;;;;;;;29.17;18.03;;;0.30;99.90;;;;;;5032543;28;20211;-49
2022/12/11 03:13:21;;;;;;;32.30;18.00;;;0.20;99.90;;;;;;5030335;28;20297;-50
2022/12/11 03:16:02;;;;;;;29.20;18.33;;;0.30;99.90;;;;;;5028316;28;20257;-49
2022/12/11 03:18:35;;;;;;;30.63;17.63;;;0.30;99.90;;;;;;5025719;28;20223;-51
2022/12/11 03:21:08;;;;;;;30.10;17.93;;;0.40;99.90;;;;;;5029567;28;20288;-49
2022/12/11 03:23:44;;;;;;;29.17;18.63;;;0.40;99.90;;;;;;5026859;28;20593;-51
2022/12/11 03:26:13;;;;;;;30.03;18.47;;;0.30;99.90;;;;;;5024918;28;20773;-48
2022/12/11 03:28:45;;;;;;;27.80;16.40;;;0.30;99.90;;;;;;5027134;28;20212;-50
2022/12/11 03:31:21;;;;;;;29.83;18.20;;;0.30;99.90;;;;;;5025785;28;20292;-52
2022/12/11 03:33:51;;;;;;;31.17;19.13;;;0.30;99.90;;;;;;5023440;28;20207;-49
2022/12/11 03:36:26;;;;;;;31.10;18.43;;;0.20;99.90;;;;;;5028736;28;20281;-53
2022/12/11 03:38:57;;;;;;;31.13;17.57;;;0.20;99.90;;;;;;5021380;28;20950;-49
2022/12/11 03:41:26;;;;;;;28.47;17.77;;;0.20;99.90;;;;;;5024485;28;20202;-48
2022/12/11 03:43:56;;;;;;;25.93;17.77;;;0.10;99.90;;;;;;5021303;28;20723;-49
2022/12/11 03:46:30;;;;;;;28.77;18.03;;;0.10;99.90;;;;;;5027255;28;20271;-49
2022/12/11 03:49:14;;;;;;;32.00;18.57;;;0.00;99.90;;;;;;5030196;28;20339;-51
2022/12/11 03:51:42;;;;;;;32.73;18.10;;;0.10;99.90;;;;;;5032453;28;20275;-50
2022/12/11 03:54:10;;;;;;;32.70;18.33;;;0.00;99.90;;;;;;5030149;28;20305;-50
2022/12/11 03:56:38;;;;;;;29.30;17.47;;;0.00;99.90;;;;;;5032401;28;20257;-51
2022/12/11 03:59:05;;;;;;;33.13;19.57;;;0.00;99.90;;;;;;5030286;28;20198;-52
2022/12/11 04:01:33;;;;;;;27.30;16.80;;;-0.10;99.90;;;;;;5030305;28;20203;-52
2022/12/11 04:04:00;;;;;;;32.13;17.73;;;-0.20;99.90;;;;;;5031655;28;20195;-51
2022/12/11 04:06:27;;;;;;;23.57;15.23;;;-0.20;99.90;;;;;;5032378;28;20224;-51
2022/12/11 04:08:54;;;;;;;19.37;12.73;;;-0.10;99.90;;;;;;5032203;28;20671;-51
2022/12/11 04:11:37;;;;;;;25.17;13.90;;;-0.10;99.90;;;;;;5032344;28;20254;-51
2022/12/11 04:16:53;;;;;;;20.40;13.23;;;-0.10;99.90;;;;;;5030505;28;20673;-51
2022/12/11 04:24:50;;;;;;;22.07;13.67;;;-0.30;99.90;;;;;;5031482;28;20218;-51
2022/12/11 04:27:47;;;;;;;22.90;13.07;;;-0.30;99.90;;;;;;5033027;28;20310;-50
2022/12/11 04:30:08;;;;;;;26.07;13.07;;;-0.30;99.90;;;;;;5028341;28;20201;-51
2022/12/11 04:32:36;;;;;;;23.87;14.17;;;-0.20;99.90;;;;;;5035814;28;20625;-51
2022/12/11 04:35:04;;;;;;;22.13;15.07;;;-0.20;99.90;;;;;;5035179;28;20264;-51
2022/12/11 04:37:31;;;;;;;23.10;14.43;;;-0.30;99.90;;;;;;5035689;28;20227;-52
2022/12/11 04:39:58;;;;;;;20.97;13.60;;;-0.20;99.90;;;;;;5035815;28;20739;-51
2022/12/11 04:42:25;;;;;;;26.37;16.47;;;-0.30;99.90;;;;;;5028810;28;20282;-51
2022/12/11 04:44:52;;;;;;;24.53;14.70;;;-0.30;99.90;;;;;;5032214;28;20203;-51
2022/12/11 04:47:19;;;;;;;24.33;14.87;;;-0.30;99.90;;;;;;5035538;28;20269;-51
2022/12/11 04:49:48;;;;;;;21.57;13.70;;;-0.30;99.90;;;;;;5031472;28;20206;-51
2022/12/11 04:52:15;;;;;;;20.87;13.23;;;-0.30;99.90;;;;;;5029661;28;20287;-51
2022/12/11 04:54:42;;;;;;;25.27;13.80;;;-0.30;99.90;;;;;;5035355;28;20224;-51
2022/12/11 04:57:09;;;;;;;20.57;12.40;;;-0.30;99.90;;;;;;5032298;28;20223;-51
2022/12/11 04:59:40;;;;;;;25.47;13.63;;;-0.10;99.90;;;;;;5029623;28;20565;-51
2022/12/11 05:02:07;;;;;;;20.53;13.43;;;-0.20;99.90;;;;;;5035514;28;20230;-51
2022/12/11 05:04:38;;;;;;;22.67;14.33;;;-0.20;99.90;;;;;;5035363;28;20246;-51
2022/12/11 05:07:08;;;;;;;22.37;14.47;;;-0.30;99.90;;;;;;5035635;28;20285;-51
2022/12/11 05:09:35;;;;;;;26.63;15.20;;;-0.30;99.90;;;;;;5035588;28;20204;-51
2022/12/11 05:12:02;;;;;;;20.33;12.90;;;-0.20;99.90;;;;;;5030544;28;20233;-51
2022/12/11 05:14:30;;;;;;;25.67;15.57;;;-0.20;99.90;;;;;;5034553;28;20213;-50
2022/12/11 05:16:57;;;;;;;24.07;15.53;;;-0.30;99.90;;;;;;5035198;28;20323;-50
2022/12/11 05:19:25;;;;;;;27.43;14.70;;;-0.20;99.90;;;;;;5030123;28;20658;-50
2022/12/11 05:21:52;;;;;;;26.97;15.07;;;-0.30;99.90;;;;;;5032095;28;20207;-50
2022/12/11 05:24:20;;;;;;;23.97;15.13;;;-0.20;99.90;;;;;;5034779;28;20196;-51
2022/12/11 05:26:47;;;;;;;24.53;14.00;;;-0.10;99.90;;;;;;5024883;28;20295;-50
2022/12/11 05:29:14;;;;;;;22.97;14.73;;;-0.10;99.90;;;;;;5033568;28;20284;-52
2022/12/11 05:31:41;;;;;;;18.63;12.17;;;-0.20;99.90;;;;;;5035157;28;20277;-50
2022/12/11 05:34:08;;;;;;;21.03;13.87;;;-0.30;99.90;;;;;;5026804;28;20283;-51
2022/12/11 05:36:35;;;;;;;23.37;14.33;;;-0.30;99.90;;;;;;5034585;28;20229;-51
2022/12/11 05:39:04;;;;;;;23.97;14.40;;;-0.30;99.90;;;;;;5032048;28;20199;-51
2022/12/11 05:41:33;;;;;;;21.97;14.13;;;-0.40;99.90;;;;;;5032570;28;20205;-51
2022/12/11 05:44:00;;;;;;;22.13;13.73;;;-0.20;99.90;;;;;;5021953;28;20196;-51
2022/12/11 05:46:29;;;;;;;20.40;13.60;;;-0.20;99.90;;;;;;5033538;28;20798;-52
2022/12/11 05:48:58;;;;;;;18.23;12.03;;;-0.30;99.90;;;;;;5029644;28;20251;-52
2022/12/11 05:51:26;;;;;;;15.33;11.47;;;-0.40;99.90;;;;;;5025071;28;20268;-50
2022/12/11 05:53:54;;;;;;;17.87;11.27;;;-0.40;99.90;;;;;;5029905;28;20228;-50
2022/12/11 05:56:23;;;;;;;21.07;12.87;;;-0.40;99.90;;;;;;5028567;28;20705;-51
2022/12/11 05:58:53;;;;;;;22.30;13.53;;;-0.40;99.90;;;;;;5034453;28;20276;-51
2022/12/11 06:01:22;;;;;;;20.37;13.07;;;-0.40;99.90;;;;;;5034574;28;20679;-51
2022/12/11 06:03:49;;;;;;;20.77;13.23;;;-0.40;99.90;;;;;;5033572;28;20259;-52
2022/12/11 06:06:17;;;;;;;23.97;14.67;;;-0.40;99.90;;;;;;5034178;28;20233;-50
2022/12/11 06:08:44;;;;;;;20.63;13.37;;;-0.40;99.90;;;;;;5029838;28;20202;-51
2022/12/11 06:11:12;;;;;;;25.27;15.37;;;-0.40;99.90;;;;;;5028729;28;20249;-52
2022/12/11 06:13:39;;;;;;;21.13;14.17;;;-0.40;99.90;;;;;;5030573;28;20310;-51
2022/12/11 06:16:09;;;;;;;21.23;14.37;;;-0.50;99.90;;;;;;5034411;28;20280;-51
2022/12/11 06:18:37;;;;;;;22.73;14.30;;;-0.50;99.90;;;;;;5034045;28;20258;-51
2022/12/11 06:21:12;;;;;;;19.50;14.27;;;-0.40;99.90;;;;;;5033395;28;20256;-50
2022/12/11 06:23:40;;;;;;;22.90;13.03;;;-0.40;99.90;;;;;;5030756;28;20202;-51
2022/12/11 06:26:07;;;;;;;22.57;13.27;;;-0.50;99.90;;;;;;5029224;28;20590;-50
2022/12/11 06:28:34;;;;;;;23.23;12.10;;;-0.50;99.90;;;;;;5029358;28;20202;-51
2022/12/11 06:31:02;;;;;;;23.33;13.70;;;-0.50;99.90;;;;;;5030879;28;20249;-50
2022/12/11 06:33:30;;;;;;;24.27;12.67;;;-0.50;99.90;;;;;;5032267;28;20221;-50
2022/12/11 06:36:01;;;;;;;25.50;12.73;;;-0.60;99.90;;;;;;5032870;28;20273;-50
2022/12/11 06:38:29;;;;;;;19.00;11.27;;;-0.70;99.90;;;;;;5027342;28;20207;-51
2022/12/11 06:40:56;;;;;;;20.00;11.20;;;-0.60;99.90;;;;;;5033014;28;20599;-51
2022/12/11 06:43:23;;;;;;;16.67;10.37;;;-0.70;99.90;;;;;;5032099;28;20572;-51
2022/12/11 06:45:50;;;;;;;19.17;10.47;;;-0.70;99.90;;;;;;5030860;28;20240;-51
2022/12/11 06:48:18;;;;;;;13.70;9.20;;;-0.80;99.90;;;;;;5029365;28;20247;-50
2022/12/11 06:50:46;;;;;;;13.77;8.80;;;-0.80;99.90;;;;;;5023209;28;20262;-50
2022/12/11 06:53:14;;;;;;;14.77;10.50;;;-0.80;99.90;;;;;;5020327;28;20620;-50
2022/12/11 06:55:42;;;;;;;17.10;9.77;;;-0.80;99.90;;;;;;5026399;28;20239;-50
2022/12/11 06:58:10;;;;;;;18.10;11.67;;;-0.80;99.90;;;;;;5025658;28;20848;-51
2022/12/11 07:00:38;;;;;;;20.93;12.07;;;-0.80;99.90;;;;;;5032305;28;20235;-51
2022/12/11 07:03:06;;;;;;;17.70;12.00;;;-0.80;99.90;;;;;;5029402;28;20296;-51
2022/12/11 07:05:34;;;;;;;22.57;13.23;;;-0.70;99.90;;;;;;5032034;28;20278;-51
2022/12/11 07:08:02;;;;;;;19.03;12.83;;;-0.70;99.90;;;;;;5029137;28;20228;-50
2022/12/11 07:10:29;;;;;;;15.67;11.27;;;-0.70;99.90;;;;;;5031097;28;20206;-51
2022/12/11 07:12:56;;;;;;;17.53;10.97;;;-0.70;99.90;;;;;;5024149;28;20266;-51
2022/12/11 07:15:23;;;;;;;19.70;12.30;;;-0.80;99.90;;;;;;5028417;28;20216;-52
2022/12/11 07:17:50;;;;;;;19.63;12.43;;;-0.80;99.90;;;;;;5028715;28;20274;-51
2022/12/11 07:20:17;;;;;;;19.83;11.73;;;-0.80;99.90;;;;;;5031352;28;20258;-50
2022/12/11 07:22:44;;;;;;;20.00;12.47;;;-0.80;99.90;;;;;;5027251;28;20256;-51
2022/12/11 07:25:13;;;;;;;17.20;10.90;;;-0.80;99.90;;;;;;5024135;28;20247;-51
2022/12/11 07:27:40;;;;;;;20.03;10.70;;;-0.90;99.90;;;;;;5026877;28;20251;-51
2022/12/11 07:30:09;;;;;;;18.70;11.13;;;-0.90;99.90;;;;;;5032291;28;20247;-51
2022/12/11 07:32:36;;;;;;;18.27;11.07;;;-1.00;99.90;;;;;;5032194;28;20198;-51
2022/12/11 07:35:04;;;;;;;19.07;10.40;;;-1.00;99.90;;;;;;5023495;28;20274;-51
2022/12/11 07:37:31;;;;;;;18.97;11.93;;;-0.90;99.90;;;;;;5026333;28;20280;-50
2022/12/11 07:39:58;;;;;;;18.80;12.37;;;-0.90;99.90;;;;;;5023493;28;20210;-51
2022/12/11 07:42:26;;;;;;;20.80;12.37;;;-1.00;99.90;;;;;;5029710;28;20206;-50
2022/12/11 07:44:53;;;;;;;21.27;13.80;;;-0.80;99.90;;;;;;5029953;28;20267;-51
2022/12/11 07:47:20;;;;;;;20.63;13.87;;;-0.70;99.90;;;;;;5028141;28;20216;-50
2022/12/11 07:49:48;;;;;;;22.47;13.67;;;-0.70;99.90;;;;;;5028638;28;20205;-51
2022/12/11 07:52:15;;;;;;;24.00;15.30;;;-0.60;99.90;;;;;;5026675;28;20232;-51
2022/12/11 07:54:42;;;;;;;24.67;14.53;;;-0.50;99.90;;;;;;5027340;28;20216;-50
2022/12/11 07:57:09;;;;;;;22.47;14.30;;;-0.50;99.90;;;;;;5031323;28;20281;-51
2022/12/11 07:59:42;;;;;;;21.23;13.10;;;-0.60;99.90;;;;;;5032000;28;20205;-51
2022/12/11 08:02:10;;;;;;;23.40;14.33;;;-0.60;99.90;;;;;;5030383;28;20232;-50
2022/12/11 08:04:40;;;;;;;23.57;15.77;;;-0.50;99.90;;;;;;5023026;28;20577;-50
2022/12/11 08:07:07;;;;;;;24.30;14.37;;;-0.50;99.90;;;;;;5029890;28;20641;-51
2022/12/11 08:09:34;;;;;;;24.57;16.10;;;-0.40;99.90;;;;;;5031627;28;20285;-51
2022/12/11 08:12:01;;;;;;;24.80;15.70;;;-0.30;99.90;;;;;;5031912;28;20198;-51
2022/12/11 08:14:28;;;;;;;26.60;15.93;;;-0.30;99.90;;;;;;5030379;28;20222;-51
2022/12/11 08:16:58;;;;;;;29.27;17.20;;;-0.30;99.90;;;;;;5025268;28;20268;-51
2022/12/11 08:19:26;;;;;;;29.07;17.60;;;-0.10;99.90;;;;;;5024988;28;20284;-51
2022/12/11 08:21:53;;;;;;;34.43;20.87;;;0.10;99.90;;;;;;5018112;28;20209;-51
2022/12/11 08:24:20;;;;;;;23.83;15.20;;;0.00;99.90;;;;;;5025431;28;20253;-51
2022/12/11 08:26:48;;;;;;;22.57;14.43;;;-0.20;99.90;;;;;;5023165;28;20271;-51
2022/12/11 08:29:15;;;;;;;20.87;14.37;;;-0.30;99.90;;;;;;5025175;28;20213;-51
2022/12/11 08:31:42;;;;;;;25.40;16.37;;;-0.20;99.90;;;;;;5026066;28;20196;-52
2022/12/11 08:34:12;;;;;;;26.97;16.77;;;-0.10;99.90;;;;;;5027035;28;20645;-51
2022/12/11 08:36:40;;;;;;;24.00;14.67;;;0.00;99.90;;;;;;5029204;28;20240;-51
2022/12/11 08:39:07;;;;;;;26.17;15.47;;;0.20;99.90;;;;;;5027947;28;20270;-51
2022/12/11 08:41:34;;;;;;;24.27;14.13;;;0.30;99.90;;;;;;5025646;28;20257;-51
2022/12/11 08:44:01;;;;;;;17.17;12.37;;;0.50;99.90;;;;;;5030442;28;20202;-51
2022/12/11 08:46:30;;;;;;;19.93;11.47;;;0.70;99.90;;;;;;5031164;28;20273;-50
2022/12/11 08:48:58;;;;;;;18.47;12.73;;;0.80;99.90;;;;;;5028164;28;20258;-51
2022/12/11 08:51:28;;;;;;;16.77;11.10;;;0.80;99.90;;;;;;5026184;28;20206;-50
2022/12/11 08:53:56;;;;;;;17.90;10.43;;;0.80;99.90;;;;;;5017864;28;20221;-50
2022/12/11 08:56:23;;;;;;;14.97;11.03;;;0.70;99.90;;;;;;5018952;28;20226;-50
2022/12/11 08:58:51;;;;;;;17.23;11.47;;;0.70;99.90;;;;;;5028295;28;20752;-50
2022/12/11 09:01:21;;;;;;;15.73;10.33;;;0.70;99.90;;;;;;5031243;28;20206;-50
2022/12/11 09:03:49;;;;;;;15.47;10.43;;;1.00;99.90;;;;;;5029663;28;20203;-51
2022/12/11 09:06:19;;;;;;;15.50;9.53;;;1.40;99.90;;;;;;5028558;28;20223;-52
2022/12/11 09:08:49;;;;;;;15.33;10.17;;;1.80;99.90;;;;;;5029773;28;20666;-51
2022/12/11 09:11:18;;;;;;;16.60;10.07;;;1.90;99.90;;;;;;5031659;28;20852;-51
2022/12/11 09:13:45;;;;;;;16.70;11.60;;;2.10;99.90;;;;;;5032235;28;20249;-51
2022/12/11 09:16:14;;;;;;;19.20;12.23;;;1.80;99.90;;;;;;5027116;28;20901;-51
2022/12/11 09:18:42;;;;;;;16.70;11.23;;;2.10;99.90;;;;;;5026284;28;20745;-50
2022/12/11 09:21:13;;;;;;;11.77;8.53;;;2.50;99.90;;;;;;5032939;28;20204;-52
2022/12/11 09:23:40;;;;;;;13.50;9.53;;;2.80;99.90;;;;;;5033737;28;20202;-51
2022/12/11 09:26:10;;;;;;;16.27;11.07;;;2.90;99.90;;;;;;5033682;28;20219;-52
2022/12/11 09:28:38;;;;;;;18.27;11.27;;;3.00;99.90;;;;;;5024071;28;20200;-51
2022/12/11 09:31:09;;;;;;;13.43;9.90;;;3.10;99.90;;;;;;5033758;28;20283;-51
2022/12/11 09:33:36;;;;;;;11.27;8.97;;;3.10;99.90;;;;;;5030932;28;20705;-51
2022/12/11 09:36:04;;;;;;;12.97;8.70;;;3.00;99.90;;;;;;5029077;28;20215;-51
2022/12/11 09:38:32;;;;;;;13.80;10.33;;;2.90;99.90;;;;;;5033084;28;20209;-51
2022/12/11 09:41:00;;;;;;;12.50;9.10;;;2.90;99.90;;;;;;5030139;28;20262;-50
2022/12/11 09:43:38;;;;;;;9.37;6.63;;;2.90;99.90;;;;;;5024208;28;20212;-50
2022/12/11 09:46:09;;;;;;;12.97;8.63;;;2.70;99.90;;;;;;5025500;28;20266;-50
2022/12/11 09:48:38;;;;;;;15.43;10.60;;;2.50;99.90;;;;;;5031904;28;20623;-50
2022/12/11 09:51:14;;;;;;;14.13;9.23;;;2.40;99.90;;;;;;5034168;28;20199;-51
2022/12/11 09:53:41;;;;;;;13.73;9.13;;;2.30;99.90;;;;;;5025610;28;20731;-51
2022/12/11 09:56:16;;;;;;;14.17;9.37;;;2.30;99.90;;;;;;5034045;28;20235;-51
2022/12/11 09:58:57;;;;;;;12.77;9.03;;;2.10;99.90;;;;;;5032384;28;20211;-50
2022/12/11 10:01:35;;;;;;;13.60;8.67;;;2.20;99.90;;;;;;5034047;28;20204;-51
2022/12/11 10:04:32;;;;;;;10.50;7.77;;;2.40;99.90;;;;;;5033070;28;20225;-51
2022/12/11 10:07:06;;;;;;;13.47;8.53;;;2.80;99.90;;;;;;5024565;28;20263;-50
2022/12/11 10:09:46;;;;;;;8.80;6.97;;;2.80;99.90;;;;;;5021210;28;20207;-50
2022/12/11 10:12:32;;;;;;;7.90;5.77;;;3.10;99.90;;;;;;5027110;28;20341;-51
2022/12/11 10:15:17;;;;;;;8.60;6.87;;;3.30;99.90;;;;;;5031832;28;20709;-51
2022/12/11 10:17:44;;;;;;;10.07;6.03;;;3.50;99.90;;;;;;5032555;28;20281;-51
2022/12/11 10:20:22;;;;;;;8.93;7.03;;;3.70;99.90;;;;;;5032645;28;20208;-51
2022/12/11 10:22:50;;;;;;;7.63;5.80;;;4.10;99.90;;;;;;5031278;28;20208;-51
2022/12/11 10:25:21;;;;;;;7.10;6.40;;;4.40;99.90;;;;;;5026404;28;20667;-51
2022/12/11 10:27:49;;;;;;;9.13;7.00;;;4.30;99.90;;;;;;5032844;28;20228;-51
2022/12/11 10:30:20;;;;;;;7.97;6.43;;;4.00;99.90;;;;;;5017059;28;20247;-51
2022/12/11 10:32:53;;;;;;;7.63;6.60;;;3.90;99.90;;;;;;5029682;28;20200;-50
2022/12/11 10:35:31;;;;;;;8.90;6.90;;;3.90;99.90;;;;;;5021335;28;20227;-50
2022/12/11 10:38:11;;;;;;;9.17;6.50;;;3.80;99.90;;;;;;5032056;28;20629;-51
2022/12/11 10:40:41;;;;;;;10.20;7.20;;;3.30;99.90;;;;;;5031832;28;20204;-50
2022/12/11 10:43:09;;;;;;;9.33;7.50;;;3.20;99.90;;;;;;5032636;28;20628;-50
2022/12/11 10:45:37;;;;;;;9.27;6.20;;;3.20;99.90;;;;;;5033058;28;20295;-52
2022/12/11 10:48:07;;;;;;;9.13;6.90;;;2.90;99.90;;;;;;5030982;28;20230;-50
2022/12/11 10:50:34;;;;;;;10.53;7.13;;;3.00;99.90;;;;;;5024221;28;20208;-51
2022/12/11 10:53:01;;;;;;;11.83;6.63;;;3.10;99.90;;;;;;5016649;28;20617;-50
2022/12/11 10:55:31;;;;;;;7.40;6.17;;;3.10;99.90;;;;;;5031952;28;20220;-51
2022/12/11 10:58:00;;;;;;;10.40;7.50;;;2.80;99.90;;;;;;5032548;28;20209;-51
2022/12/11 11:00:35;;;;;;;10.77;8.27;;;2.50;99.90;;;;;;5030677;28;20211;-51
2022/12/11 11:03:05;;;;;;;10.27;7.87;;;2.10;99.90;;;;;;5026650;28;20262;-49
2022/12/11 11:05:34;;;;;;;10.23;7.50;;;2.20;99.90;;;;;;5032763;28;20198;-52
2022/12/11 11:08:21;;;;;;;7.43;6.40;;;2.10;99.90;;;;;;5026080;28;20251;-50
2022/12/11 11:10:53;;;;;;;7.30;6.60;;;2.00;99.90;;;;;;5023176;28;20228;-51
2022/12/11 11:13:22;;;;;;;10.33;7.50;;;1.90;99.90;;;;;;5027236;28;20240;-50
2022/12/11 11:15:51;;;;;;;8.30;7.03;;;2.00;99.90;;;;;;5023878;28;20231;-51
2022/12/11 11:18:25;;;;;;;10.33;6.93;;;2.10;99.90;;;;;;5032394;28;20744;-51
2022/12/11 11:20:53;;;;;;;8.73;6.30;;;2.30;99.90;;;;;;5031278;28;20199;-52
2022/12/11 11:23:21;;;;;;;10.63;7.53;;;2.10;99.90;;;;;;5030451;28;20214;-52
2022/12/11 11:25:54;;;;;;;10.73;7.37;;;2.20;99.90;;;;;;5022128;28;20211;-51
2022/12/11 11:28:25;;;;;;;9.57;8.07;;;2.20;99.90;;;;;;5032396;28;20257;-52
2022/12/11 11:31:04;;;;;;;8.13;6.50;;;2.10;99.90;;;;;;5029592;28;20261;-50
2022/12/11 11:33:35;;;;;;;11.10;7.47;;;2.20;99.90;;;;;;5024887;28;20203;-50
2022/12/11 11:36:04;;;;;;;9.87;7.30;;;2.40;99.90;;;;;;5016113;28;20633;-51
2022/12/11 11:38:35;;;;;;;8.30;6.40;;;2.40;99.90;;;;;;5029171;28;20651;-51
2022/12/11 11:41:12;;;;;;;7.97;6.30;;;2.40;99.90;;;;;;5031190;28;20290;-51
2022/12/11 11:43:45;;;;;;;9.93;8.13;;;2.40;99.90;;;;;;5028998;28;20212;-50
2022/12/11 11:46:15;;;;;;;6.80;6.10;;;2.40;99.90;;;;;;5024418;28;20315;-51
2022/12/11 11:48:52;;;;;;;7.13;6.00;;;2.40;99.90;;;;;;5026855;28;20204;-51
2022/12/11 11:51:27;;;;;;;10.70;7.57;;;2.40;99.90;;;;;;5030091;28;20212;-52
2022/12/11 11:53:59;;;;;;;7.17;5.97;;;2.50;99.90;;;;;;5029837;28;20206;-51
2022/12/11 11:56:30;;;;;;;9.33;7.07;;;2.30;99.90;;;;;;5026917;28;20230;-50
2022/12/11 11:59:07;;;;;;;6.77;5.73;;;2.10;99.90;;;;;;5026013;28;20318;-53
2022/12/11 12:01:34;;;;;;;8.57;6.13;;;2.00;99.90;;;;;;5018976;28;20294;-51
2022/12/11 12:04:04;;;;;;;8.27;6.47;;;2.10;99.90;;;;;;5029091;28;20541;-51
2022/12/11 12:06:50;;;;;;;8.70;7.47;;;2.20;99.90;;;;;;5027662;28;20225;-50
2022/12/11 12:09:30;;;;;;;8.43;6.40;;;2.20;99.90;;;;;;5024961;28;20231;-52
2022/12/11 12:12:09;;;;;;;10.50;7.60;;;2.30;99.90;;;;;;5026898;28;20261;-51
2022/12/11 12:14:52;;;;;;;7.93;6.10;;;2.20;99.90;;;;;;5028781;28;20254;-52
2022/12/11 12:17:31;;;;;;;12.00;7.97;;;2.10;99.90;;;;;;5023382;28;20253;-51
2022/12/11 12:20:11;;;;;;;10.30;8.40;;;2.00;99.90;;;;;;5025205;28;20719;-50
2022/12/11 12:22:59;;;;;;;11.90;8.90;;;2.00;99.90;;;;;;5029915;28;20253;-50
2022/12/11 12:25:34;;;;;;;13.17;8.87;;;1.90;99.90;;;;;;5025905;28;20198;-51
2022/12/11 12:28:12;;;;;;;12.07;9.00;;;1.90;99.90;;;;;;5014478;28;20678;-52
2022/12/11 12:30:50;;;;;;;13.17;8.67;;;1.90;99.90;;;;;;5023545;28;20263;-51
2022/12/11 12:33:26;;;;;;;13.10;8.70;;;1.90;99.90;;;;;;5022851;28;20199;-52
2022/12/11 12:36:06;;;;;;;10.50;8.40;;;1.60;99.90;;;;;;5020285;28;20227;-51
2022/12/11 12:38:45;;;;;;;12.17;8.63;;;1.60;99.90;;;;;;5026900;28;20229;-52
2022/12/11 12:41:18;;;;;;;10.87;8.23;;;1.60;99.90;;;;;;5024471;28;20258;-51
2022/12/11 12:44:09;;;;;;;12.93;9.27;;;1.70;99.90;;;;;;5027416;28;20199;-51
2022/12/11 12:46:57;;;;;;;11.57;6.93;;;1.60;99.90;;;;;;5030048;28;20226;-50
2022/12/11 12:49:38;;;;;;;9.03;6.63;;;1.70;99.90;;;;;;5034501;28;20670;-51
2022/12/11 12:52:11;;;;;;;11.47;7.43;;;1.70;99.90;;;;;;5019432;28;20252;-52
2022/12/11 12:55:12;;;;;;;15.37;10.17;;;1.50;99.90;;;;;;5022782;28;20675;-52
2022/12/11 12:57:32;;;;;;;18.33;9.63;;;1.40;99.90;;;;;;5031283;28;20278;-51
2022/12/11 12:59:59;;;;;;;11.77;9.77;;;1.30;99.90;;;;;;5026784;28;20246;-52
2022/12/11 13:02:27;;;;;;;11.53;8.33;;;1.30;99.90;;;;;;5033462;28;20203;-50
2022/12/11 13:04:58;;;;;;;22.73;11.63;;;1.40;99.90;;;;;;5025657;28;20202;-51